Aérodrome :
LOGIN :

S'inscrire | Disclaimer

   EN    FR    IT 

 










Légende :    VFR   VFR Marginal   IFR   IFR Intensif   IFR Très Intensif
Visi : 
Plafond : 
>= 8 km
>= 3000ft
5 à 8 km
1000 à 3000 ft
1500m à 5 km
500 à 1000 ft
800 à 1500m
200 à 500 ft
< 800m
< 200 ft
Symboles :   Orages  Brouillard  Fortes neiges  Fortes précipitations  Vent > 20 kt
SIGMETs :   Divers  Orages  Givrage  Turbulence  Onde Orograph.  Cendres Volcan.






- Altitude de l'aérodrome : 348 ft
- Code IATA : LDV


LFRJ - Landivisiau

DERNIER METAR :
  • 040500Z AUTO 33004KT 9999 BKN026 10/10 Q1024

METARs EXPIRÉS :
  • 040430Z AUTO 32005KT 9999 BKN024 10/10 Q1024
  • 040400Z AUTO VRB02KT 9999 FEW019 OVC024 10/09 Q1024
  • 040330Z AUTO 28002KT 9999 FEW001 BKN024 10/10 Q1024
  • 040300Z AUTO 30003KT 1000 0450 R25/1500U R07/0500D BCFG FEW023 09/09 Q1024
  • 040230Z AUTO 31004KT 0600 0500 R25/0700D R07/0600D FG VV/// 09/08 Q1024

Prévision TAF périmée.



MET'MAP, la Météo Aéronautique d'un coup d'oeil ! - Copyright ORBIFLY Décembre 2007 - Disclaimer

ORBIFLY MET'MAP TEAM :

Programmation & Développement : Alexandra Zaïnal
Sur une idée originale de : Baudouin d'Aumeries
Soutien technique & logistique : Manuel Goepfert
Assistance : Marc-Olivier Méhu




SOURCES & CREDITS :

   NOAA